createdAt,value
2019-03-25T00:02:26.432Z,13.50
2019-03-25T00:06:40.148Z,13.60
2019-03-25T00:10:53.361Z,13.03
2019-03-25T00:15:06.435Z,13.77
2019-03-25T00:19:20.654Z,12.07
2019-03-25T00:23:34.318Z,11.80
2019-03-25T00:27:47.960Z,11.03
2019-03-25T00:32:01.172Z,11.77
2019-03-25T00:36:13.995Z,11.03
2019-03-25T00:40:26.932Z,11.00
2019-03-25T00:44:40.592Z,11.63
2019-03-25T00:48:53.968Z,9.97
2019-03-25T00:53:07.247Z,8.47
2019-03-25T00:57:20.074Z,8.07
2019-03-25T01:01:33.201Z,7.13
2019-03-25T01:05:46.638Z,7.20
2019-03-25T01:10:00.373Z,6.13
2019-03-25T01:14:13.728Z,5.80
2019-03-25T01:18:27.025Z,5.47
2019-03-25T01:22:39.988Z,4.97
2019-03-25T01:26:53.027Z,4.50
2019-03-25T01:31:06.257Z,5.50
2019-03-25T01:35:19.076Z,4.20
2019-03-25T01:39:32.012Z,4.63
2019-03-25T01:43:45.138Z,3.37
2019-03-25T01:47:58.550Z,4.03
2019-03-25T01:52:11.571Z,3.23
2019-03-25T01:56:24.637Z,3.73
2019-03-25T02:00:38.177Z,3.33
2019-03-25T02:04:51.849Z,3.70
2019-03-25T02:09:06.084Z,3.17
2019-03-25T02:13:19.013Z,2.87
2019-03-25T02:17:32.249Z,3.20
2019-03-25T02:21:45.135Z,2.90
2019-03-25T02:25:58.109Z,3.17
2019-03-25T02:30:11.345Z,3.30
2019-03-25T02:34:24.162Z,3.17
2019-03-25T02:38:37.200Z,3.03
2019-03-25T02:42:50.432Z,2.83
2019-03-25T02:47:03.736Z,2.87
2019-03-25T02:51:16.745Z,3.17
2019-03-25T02:55:41.294Z,2.83
2019-03-25T02:59:44.594Z,3.90
2019-03-25T03:03:57.533Z,3.00
2019-03-25T03:08:10.669Z,3.30
2019-03-25T03:12:23.785Z,2.90
2019-03-25T03:16:37.023Z,2.90
2019-03-25T03:20:50.035Z,2.87
2019-03-25T03:25:03.096Z,3.03
2019-03-25T03:29:16.320Z,3.00
2019-03-25T03:33:29.561Z,3.27
2019-03-25T03:37:42.477Z,3.20
2019-03-25T03:41:55.510Z,2.97
2019-03-25T03:46:08.808Z,2.77
2019-03-25T03:50:29.425Z,3.00
2019-03-25T03:54:42.754Z,3.43
2019-03-25T03:58:56.125Z,2.97
2019-03-25T04:03:09.366Z,3.07
2019-03-25T04:07:22.938Z,3.27
2019-03-25T04:11:36.269Z,2.50
2019-03-25T04:15:49.280Z,2.83
2019-03-25T04:20:02.307Z,2.60
2019-03-25T04:24:15.617Z,2.83
2019-03-25T04:28:28.773Z,2.77
2019-03-25T04:32:41.701Z,2.13
2019-03-25T04:36:54.833Z,2.27
2019-03-25T04:41:08.075Z,2.47
2019-03-25T04:45:20.994Z,2.43
2019-03-25T04:49:34.018Z,2.97
2019-03-25T04:53:47.428Z,2.80
2019-03-25T04:58:01.134Z,2.60
2019-03-25T05:02:14.347Z,2.63
2019-03-25T05:06:27.278Z,2.43
2019-03-25T05:10:40.300Z,2.40
2019-03-25T05:14:53.541Z,2.33
2019-03-25T05:19:06.778Z,2.70
2019-03-25T05:23:19.708Z,2.43
2019-03-25T05:27:32.792Z,2.20
2019-03-25T05:31:46.075Z,2.97
2019-03-25T05:35:58.998Z,2.53
2019-03-25T05:40:12.126Z,2.93
2019-03-25T05:44:25.382Z,2.63
2019-03-25T05:48:38.668Z,2.33
2019-03-25T05:52:51.792Z,2.40
2019-03-25T05:57:06.091Z,2.63
2019-03-25T06:01:19.177Z,3.27
2019-03-25T06:05:32.152Z,2.67
2019-03-25T06:09:45.492Z,3.13
2019-03-25T06:13:59.157Z,2.43
2019-03-25T06:18:12.801Z,2.03
2019-03-25T06:22:26.448Z,2.00
2019-03-25T06:26:40.089Z,2.70
2019-03-25T06:30:53.360Z,2.20
2019-03-25T06:35:08.686Z,2.43
2019-03-25T06:39:20.796Z,2.30
2019-03-25T06:43:34.033Z,2.30
2019-03-25T06:47:46.916Z,2.20
2019-03-25T06:51:59.953Z,2.40
2019-03-25T06:56:13.223Z,2.20
2019-03-25T07:00:26.540Z,2.40
2019-03-25T07:04:39.491Z,1.83
2019-03-25T07:08:52.621Z,1.77
2019-03-25T07:13:06.057Z,2.30
2019-03-25T07:17:19.729Z,1.63
2019-03-25T07:21:33.371Z,2.60
2019-03-25T07:25:46.590Z,2.90
2019-03-25T07:29:59.820Z,2.80
2019-03-25T07:34:12.941Z,2.80
2019-03-25T07:38:25.982Z,3.00
2019-03-25T07:42:39.213Z,3.17
2019-03-25T07:46:52.782Z,3.13
2019-03-25T07:51:05.644Z,3.00
2019-03-25T07:55:18.872Z,2.47
2019-03-25T07:59:32.065Z,3.40
2019-03-25T08:03:45.058Z,3.33
2019-03-25T08:07:58.151Z,2.80
2019-03-25T08:12:11.345Z,2.50
2019-03-25T08:16:24.581Z,3.00
2019-03-25T08:20:37.510Z,2.50
2019-03-25T08:24:50.536Z,3.07
2019-03-25T08:29:03.663Z,2.80
2019-03-25T08:33:16.663Z,3.13
2019-03-25T08:37:29.796Z,2.73
2019-03-25T08:41:43.073Z,3.50
2019-03-25T08:45:55.893Z,2.70
2019-03-25T08:50:09.267Z,2.60
2019-03-25T08:54:22.373Z,2.67
2019-03-25T08:58:35.600Z,2.93
2019-03-25T09:02:48.423Z,2.73
2019-03-25T09:07:01.548Z,2.60
2019-03-25T09:11:14.790Z,2.70
2019-03-25T09:15:28.028Z,2.40
2019-03-25T09:19:40.973Z,2.80
2019-03-25T09:23:53.990Z,2.93
2019-03-25T09:28:07.116Z,2.70
2019-03-25T09:32:19.981Z,1.97
2019-03-25T09:36:33.073Z,2.03
2019-03-25T09:40:46.740Z,1.90
2019-03-25T09:45:00.396Z,1.87
2019-03-25T09:49:14.132Z,1.97
2019-03-25T09:53:27.410Z,2.13
2019-03-25T09:57:40.682Z,2.10
2019-03-25T10:01:53.608Z,2.50
2019-03-25T10:06:06.744Z,3.20
2019-03-25T10:10:20.173Z,2.57
2019-03-25T10:14:33.428Z,3.10
2019-03-25T10:18:46.655Z,2.67
2019-03-25T10:22:59.581Z,2.60
2019-03-25T10:27:12.623Z,2.40
2019-03-25T10:31:26.398Z,2.50
2019-03-25T10:35:39.757Z,2.30
2019-03-25T10:39:52.933Z,1.80
2019-03-25T10:44:06.017Z,2.27
2019-03-25T10:48:19.085Z,1.70
2019-03-25T10:52:32.757Z,2.47
2019-03-25T10:56:49.240Z,2.17
2019-03-25T11:01:01.355Z,2.30
2019-03-25T11:05:14.695Z,2.33
2019-03-25T11:09:27.936Z,2.10
2019-03-25T11:13:41.045Z,2.30
2019-03-25T11:17:54.005Z,2.50
2019-03-25T11:22:07.430Z,2.57
2019-03-25T11:26:20.657Z,2.40
2019-03-25T11:30:56.010Z,2.27
2019-03-25T11:35:10.717Z,2.23
2019-03-25T11:39:23.715Z,2.03
2019-03-25T11:43:36.749Z,1.77
2019-03-25T11:47:50.751Z,1.70
2019-03-25T11:52:03.893Z,2.23
2019-03-25T11:56:17.702Z,1.97
2019-03-25T12:00:30.913Z,1.77
2019-03-25T12:04:43.875Z,2.23
2019-03-25T12:08:58.721Z,2.20
2019-03-25T12:13:13.245Z,1.83
2019-03-25T12:17:26.601Z,1.80
2019-03-25T12:21:39.540Z,2.20
2019-03-25T12:25:52.571Z,2.40
2019-03-25T12:30:06.172Z,1.90
2019-03-25T12:34:20.594Z,2.20
2019-03-25T12:38:33.597Z,2.03
2019-03-25T12:42:46.732Z,2.27
2019-03-25T12:46:59.867Z,2.17
2019-03-25T12:51:12.872Z,2.00
2019-03-25T12:55:26.007Z,2.63
2019-03-25T12:59:41.583Z,2.40
2019-03-25T13:03:53.841Z,2.00
2019-03-25T13:08:07.000Z,2.23
2019-03-25T13:12:20.299Z,2.10
2019-03-25T13:16:33.969Z,2.17
2019-03-25T13:20:47.819Z,2.77
2019-03-25T13:25:01.027Z,2.87
2019-03-25T13:29:14.163Z,2.67
2019-03-25T13:33:29.335Z,3.13
2019-03-25T13:37:41.659Z,2.70
2019-03-25T13:41:54.384Z,2.63
2019-03-25T13:46:07.407Z,2.37
2019-03-25T13:50:20.974Z,2.43
2019-03-25T13:54:34.722Z,2.70
2019-03-25T13:58:47.936Z,2.77
2019-03-25T14:03:01.168Z,2.70
2019-03-25T14:07:14.093Z,2.13
2019-03-25T14:11:27.130Z,2.87
2019-03-25T14:15:40.793Z,2.13
2019-03-25T14:19:54.436Z,2.77
2019-03-25T14:24:10.066Z,2.90
2019-03-25T14:28:23.136Z,2.47
2019-03-25T14:32:35.862Z,2.27
2019-03-25T14:36:48.789Z,2.93
2019-03-25T14:41:02.025Z,3.13
2019-03-25T14:45:25.893Z,2.53
2019-03-25T14:49:29.454Z,3.27
2019-03-25T14:53:45.127Z,2.43
2019-03-25T14:57:58.189Z,3.00
2019-03-25T15:02:11.475Z,3.23
2019-03-25T15:06:24.305Z,1.97
2019-03-25T15:10:37.333Z,3.30
2019-03-25T15:14:53.736Z,2.93
2019-03-25T15:19:07.607Z,2.77
2019-03-25T15:23:21.251Z,3.03
2019-03-25T15:27:34.896Z,2.57
2019-03-25T15:31:48.147Z,2.63
2019-03-25T15:36:01.053Z,3.10
2019-03-25T15:40:14.673Z,2.30
2019-03-25T15:44:27.655Z,3.20
2019-03-25T15:48:40.839Z,2.60
2019-03-25T15:52:55.335Z,2.60
2019-03-25T15:57:08.624Z,2.80
2019-03-25T16:01:21.776Z,2.43
2019-03-25T16:05:34.597Z,3.00
2019-03-25T16:09:47.536Z,2.93
2019-03-25T16:14:00.764Z,2.63
2019-03-25T16:18:34.891Z,2.70
2019-03-25T16:22:48.022Z,2.50
2019-03-25T16:27:01.260Z,2.97
2019-03-25T16:31:14.245Z,2.60
2019-03-25T16:35:27.321Z,2.60
2019-03-25T16:39:40.775Z,2.87
2019-03-25T16:43:54.096Z,2.63
2019-03-25T16:48:07.016Z,3.17
2019-03-25T16:52:20.113Z,2.93
2019-03-25T16:56:34.425Z,2.90
2019-03-25T17:00:47.414Z,2.70
2019-03-25T17:05:00.717Z,2.83
2019-03-25T17:09:13.929Z,2.50
2019-03-25T17:13:26.872Z,2.20
2019-03-25T17:17:39.986Z,2.80
2019-03-25T17:21:57.996Z,2.63
2019-03-25T17:26:08.814Z,2.97
2019-03-25T17:30:23.675Z,2.30
2019-03-25T17:34:36.489Z,2.57
2019-03-25T17:38:49.522Z,2.90
2019-03-25T17:43:02.753Z,2.77
2019-03-25T17:47:16.703Z,2.17
2019-03-25T17:51:29.841Z,3.00
2019-03-25T17:55:43.142Z,2.97
2019-03-25T17:59:56.269Z,2.50
2019-03-25T18:04:09.300Z,2.93
2019-03-25T18:08:22.574Z,3.07
2019-03-25T18:12:38.978Z,2.97
2019-03-25T18:16:50.064Z,2.90
2019-03-25T18:21:03.634Z,3.10
2019-03-25T18:25:16.841Z,3.00
2019-03-25T18:29:30.076Z,3.30
2019-03-25T18:33:43.109Z,2.90
2019-03-25T18:37:56.147Z,3.00
2019-03-25T18:42:09.380Z,3.63
2019-03-25T18:46:22.192Z,3.00
2019-03-25T18:50:35.224Z,3.57
2019-03-25T18:54:48.540Z,2.87
2019-03-25T18:59:01.959Z,2.93
2019-03-25T19:03:14.927Z,2.73
2019-03-25T19:07:28.220Z,3.10
2019-03-25T19:11:41.549Z,3.13
2019-03-25T19:15:55.170Z,3.53
2019-03-25T19:20:08.586Z,3.10
2019-03-25T19:24:21.855Z,2.63
2019-03-25T19:28:35.200Z,2.70
2019-03-25T19:32:48.098Z,2.90
2019-03-25T19:37:01.417Z,3.07
2019-03-25T19:41:14.654Z,2.83
2019-03-25T19:45:27.950Z,2.97
2019-03-25T19:49:41.688Z,2.93
2019-03-25T19:53:55.920Z,2.90
2019-03-25T19:58:09.113Z,3.23
2019-03-25T20:02:22.602Z,2.33
2019-03-25T20:06:35.952Z,3.10
2019-03-25T20:10:51.219Z,2.60
2019-03-25T20:15:05.621Z,2.93
2019-03-25T20:19:18.872Z,2.63
2019-03-25T20:23:33.097Z,2.87
2019-03-25T20:27:48.673Z,2.87
2019-03-25T20:32:03.482Z,2.70
2019-03-25T20:36:18.088Z,2.80
2019-03-25T20:40:32.297Z,3.60
2019-03-25T20:44:46.005Z,3.60
2019-03-25T20:48:59.647Z,3.50
2019-03-25T20:53:13.294Z,3.80
2019-03-25T20:57:27.090Z,3.67
2019-03-25T21:01:40.459Z,3.33
2019-03-25T21:05:54.131Z,4.00
2019-03-25T21:10:07.483Z,3.60
2019-03-25T21:14:21.523Z,3.43
2019-03-25T21:18:34.927Z,3.47
2019-03-25T21:22:48.614Z,3.77
2019-03-25T21:27:01.996Z,3.60
2019-03-25T21:31:14.756Z,3.67
2019-03-25T21:35:29.093Z,3.00
2019-03-25T21:39:42.510Z,3.60
2019-03-25T21:43:55.463Z,3.60
2019-03-25T21:48:08.463Z,3.60
2019-03-25T21:52:21.676Z,3.63
2019-03-25T21:56:35.783Z,3.60
2019-03-25T22:00:49.022Z,3.80
2019-03-25T22:05:02.687Z,3.30
2019-03-25T22:09:16.083Z,4.07
2019-03-25T22:13:29.237Z,3.70
2019-03-25T22:17:42.128Z,3.43
2019-03-25T22:21:55.299Z,3.57
2019-03-25T22:26:09.019Z,3.57
2019-03-25T22:30:22.422Z,3.60
2019-03-25T22:34:35.617Z,3.77
2019-03-25T22:38:48.544Z,3.67
2019-03-25T22:43:01.572Z,4.13
2019-03-25T22:47:14.897Z,4.50
2019-03-25T22:51:30.278Z,4.20
2019-03-25T22:55:44.300Z,3.80
2019-03-25T22:59:57.549Z,4.03
2019-03-25T23:04:11.251Z,4.07
2019-03-25T23:08:24.469Z,3.73
2019-03-25T23:12:37.288Z,3.03
2019-03-25T23:16:50.342Z,3.07
2019-03-25T23:21:03.725Z,3.73
2019-03-25T23:25:16.481Z,3.03
2019-03-25T23:29:31.349Z,3.90
2019-03-25T23:33:52.119Z,3.27
2019-03-25T23:37:59.825Z,3.33
2019-03-25T23:42:13.110Z,4.00
2019-03-25T23:46:26.341Z,3.97
2019-03-25T23:50:39.375Z,3.10
2019-03-25T23:54:52.301Z,3.77
2019-03-25T23:59:05.600Z,3.80
